AirNav   Air Wisconsin Up To $57,000 Bonus
 
 514 users online  

83TX Texas A & M Flight Test Station Airport
Bryan, Texas, USA

GOING TO BRYAN?


FAA INFORMATION EFFECTIVE 20 JUNE 2019

Location

FAA Identifier: 83TX
Lat/Long: 30-38-00.7200N / 096-29-00.8800W
30-38.012000N / 096-29.014667W
30.6335333 / -96.4835778
(estimated)
Elevation: 264 ft. / 80 m (estimated)
Variation: 06E (1985)
From city: 6 miles W of BRYAN, TX
Time zone: UTC -5 (UTC -6 during Standard Time)
Zip code: 77807

Airport Operations

Airport use: Private use. Permission required prior to landing
Activation date: 10/1966
Control tower: no
ARTCC: HOUSTON CENTER
FSS: MONTGOMERY COUNTY FLIGHT SERVICE STATION
FOR FP FILING CALL CXO FSS 1-800-833-5602.
Attendance: MON-FRI 0800-1700
Wind indicator: no
Segmented circle: no

Airport Communications

WX ASOS at CLL (7 nm SE): PHONE 979-846-1708
WX AWOS-3PT at CFD (9 nm NE): 125.975 (979-778-2544)
WX AWOS-3 at RWV (13 nm SW): 118.35 (979-567-6784)
WX AWOS-3 at LHB (16 nm NW): 118.675 (979-280-5596)

Nearby radio navigation aids

VOR radial/distance  VOR name  Freq  Var
CLLr290/3.7COLLEGE STATION VORTAC113.3008E
TNVr305/30.2NAVASOTA VOR/DME115.9008E
LOAr214/39.6LEONA VORTAC110.8008E

 
NDB name  Hdg/Dist  Freq  Var  ID
ROWDY315/11.326003ECL -.-. .-..

Airport Services

Airframe service: NONE
Powerplant service: NONE

Runway Information

Runway 17R/35L

Dimensions: 7000 x 150 ft. / 2134 x 46 m
Surface: concrete
RUNWAY 17R  RUNWAY 35L
Traffic pattern: leftleft

Airport Ownership and Management from official FAA records

Ownership: Privately-owned
Owner: TEXAS A & M UNIVERSITY
COLLEGE STATION, TX 77843-1369
Phone (979) 458-1151
Manager: DAVID MORRISON
(FCOR) FACILITIES COORDINATION-TAMU
COLLEGE STATION, TX 77843-1369
Phone (979) 458-1151
UNIVERSITY POLICE DEPT. TEXAS A & M UNIV. EMERGENCIES (979) 845-8661

Airport Operational Statistics

Aircraft based on the field: 5
Single engine airplanes: 3
Helicopters: 2
    

Additional Remarks

CONTROL TWR & WATER TOWER EAST.
FOUR ADDL RWYS ON FLD BUT ARE OBSTRUCTED.
RWY 17R-35L OBSTRUCTED BY CARS & TRUCKS.
EMERGENCY LANDINGS ONLY.
NO UNAUTHORIZED LANDINGS.
FOR ALL EMERGENCIES CTC THE TEXAS A&M UNIVERSITY POLICE DEPT. 979-845-2345.
RESEARCH AND INSTRUCTIONAL FACILITIES OF VARIOUS HEIGHTS INVOF RY.
FOR CD CTC HOUSTON APCH AT 281-443-5844.

Instrument Procedures

There are no published instrument procedures at 83TX.

Some nearby airports with instrument procedures:

KCLL - Easterwood Field Airport (7 nm SE)
KCFD - Coulter Field Airport (9 nm NE)
KRWV - Caldwell Municipal Airport (13 nm SW)
KLHB - Hearne Municipal Airport (16 nm NW)
60R - Navasota Municipal Airport (25 nm SE)
 
Loc | Ops | Rwys | IFR | FBO | Links
Com | Nav | Svcs | Stats | Notes
Area around 83TX (Texas A & M Flight Test Station Airport)
 
Road maps at: MapQuest Bing Google
 
Aerial photo
WARNING: Photo may not be current or correct
Aerial photo of 83TX (Texas A & M Flight Test Station Airport)
Do you have a better or more recent aerial photo of Texas A & M Flight Test Station Airport that you would like to share? If so, please send us your photo.

 
Sectional chart

 
Airport distance calculator
Flying to Texas A & M Flight Test Station Airport? Find the distance to fly.

From to 83TX

Sunrise and sunset
Times for 27-Jun-2019
 Local
(UTC-5)
 Zulu
(UTC)
Morning civil twilight05:5910:59
Sunrise06:2611:26
Sunset20:3101:31
Evening civil twilight20:5901:59

Current date and time
Zulu (UTC)  27-Jun-2019 05:45:42
Local (UTC-5)  27-Jun-2019 00:45:42
 
METAR
KCLL 
7nm SE 
270453Z AUTO 10006KT 10SM CLR 24/22 A3015 RMK AO2 SLP204 T02440222
KCFD 
9nm NE 
270535Z AUTO 00000KT 10SM CLR 24/24 A3017 RMK AO2 T02370237
KRWV 
13nm SW 
270535Z AUTO 00000KT 10SM SCT022 23/22 A3016 RMK AO2 T02290219
KLHB 
16nm NW 
270535Z AUTO 00000KT 10SM CLR 23/22 A3016 RMK AO2 T02270222
TAF
KCLL 
7nm SE 
262212Z 2622/2718 VRB05KT P6SM VCTS FEW050CB BKN110 TEMPO 2622/2624 6SM -TSRA BR BKN030CB FM270000 13006KT P6SM SCT026 BKN035 FM271200 09003KT 6SM BR BKN015 FM271400 14006KT P6SM SCT013 BKN025 FM271600 15005KT P6SM BKN030
NOTAMs
Click for the latest NOTAMs
NOTAMs are issued by the DoD/FAA and will open in a separate window not controlled by AirNav.

 

 
 

Would you like to see your business listed on this page?

 If your business provides an interesting product or service to pilots, flight crews, aircraft, or users of the Texas A & M Flight Test Station Airport, you should consider listing it here.  To start the listing process, click on the button below
 
Add a business
 

Other Pages about Texas A & M Flight Test Station Airport

Update a link
 
Copyright © AirNav, LLC. All rights reserved. Privacy Policy  Contact